Terminal Aerodrome Forecast
Issued by NWS

Current Version | Previous Version | Text Only | Print | Product List | Glossary On
Versions: 1 2 3 4 5 6 7 8 9 10 11 12 13
000
FTUS45 KABQ 211100
TAFROW
TAF
KROW 211124Z 2112/2212 VRB05KT P6SM SCT150
     FM212100 17010KT P6SM SCT100 SCT200
     FM220300 18010KT P6SM VCSH BKN100=

USA.gov is the U.S. government's official web portal to all federal, state and local government web resources and services.